sensor_id;sensor_type;location;lat;lon;timestamp;P1;durP1;ratioP1;P2;durP2;ratioP2
29634;SDS011;16557;54.762;56.068;2023-01-31T00:00:49;33.40;;;16.25;;
29634;SDS011;16557;54.762;56.068;2023-01-31T00:03:18;33.30;;;16.52;;
29634;SDS011;16557;54.762;56.068;2023-01-31T00:05:48;29.70;;;15.58;;
29634;SDS011;16557;54.762;56.068;2023-01-31T00:08:18;31.42;;;15.18;;
29634;SDS011;16557;54.762;56.068;2023-01-31T00:10:49;29.90;;;15.85;;
29634;SDS011;16557;54.762;56.068;2023-01-31T00:13:18;28.15;;;15.72;;
29634;SDS011;16557;54.762;56.068;2023-01-31T00:15:47;32.83;;;17.10;;
29634;SDS011;16557;54.762;56.068;2023-01-31T00:18:17;33.08;;;16.70;;
29634;SDS011;16557;54.762;56.068;2023-01-31T00:20:46;32.80;;;15.90;;
29634;SDS011;16557;54.762;56.068;2023-01-31T00:23:15;32.08;;;16.10;;
29634;SDS011;16557;54.762;56.068;2023-01-31T00:25:44;35.78;;;15.28;;
29634;SDS011;16557;54.762;56.068;2023-01-31T00:28:13;32.23;;;15.70;;
29634;SDS011;16557;54.762;56.068;2023-01-31T00:30:43;31.90;;;15.78;;
29634;SDS011;16557;54.762;56.068;2023-01-31T00:33:12;30.05;;;14.30;;
29634;SDS011;16557;54.762;56.068;2023-01-31T00:35:41;33.73;;;16.25;;
29634;SDS011;16557;54.762;56.068;2023-01-31T00:38:10;31.33;;;15.90;;
29634;SDS011;16557;54.762;56.068;2023-01-31T00:40:40;29.27;;;16.42;;
29634;SDS011;16557;54.762;56.068;2023-01-31T00:43:09;34.43;;;16.52;;
29634;SDS011;16557;54.762;56.068;2023-01-31T00:45:38;30.45;;;16.12;;
29634;SDS011;16557;54.762;56.068;2023-01-31T00:48:07;31.75;;;15.85;;
29634;SDS011;16557;54.762;56.068;2023-01-31T00:50:37;35.68;;;15.80;;
29634;SDS011;16557;54.762;56.068;2023-01-31T00:53:06;30.43;;;15.08;;
29634;SDS011;16557;54.762;56.068;2023-01-31T00:55:36;31.82;;;15.68;;
29634;SDS011;16557;54.762;56.068;2023-01-31T00:58:05;30.08;;;16.57;;
29634;SDS011;16557;54.762;56.068;2023-01-31T01:00:34;31.52;;;16.23;;
29634;SDS011;16557;54.762;56.068;2023-01-31T01:03:03;34.05;;;16.95;;
29634;SDS011;16557;54.762;56.068;2023-01-31T01:05:33;28.10;;;15.28;;
29634;SDS011;16557;54.762;56.068;2023-01-31T01:08:02;31.75;;;16.32;;
29634;SDS011;16557;54.762;56.068;2023-01-31T01:10:32;37.88;;;18.37;;
29634;SDS011;16557;54.762;56.068;2023-01-31T01:13:01;35.50;;;17.95;;
29634;SDS011;16557;54.762;56.068;2023-01-31T01:15:32;44.58;;;20.17;;
29634;SDS011;16557;54.762;56.068;2023-01-31T01:18:04;38.80;;;18.65;;
29634;SDS011;16557;54.762;56.068;2023-01-31T01:20:34;38.30;;;19.32;;
29634;SDS011;16557;54.762;56.068;2023-01-31T01:23:03;32.90;;;17.20;;
29634;SDS011;16557;54.762;56.068;2023-01-31T01:25:40;37.20;;;18.30;;
29634;SDS011;16557;54.762;56.068;2023-01-31T01:28:10;35.80;;;18.50;;
29634;SDS011;16557;54.762;56.068;2023-01-31T01:30:39;41.10;;;17.95;;
29634;SDS011;16557;54.762;56.068;2023-01-31T01:33:08;38.00;;;19.07;;
29634;SDS011;16557;54.762;56.068;2023-01-31T01:35:37;36.65;;;18.48;;
29634;SDS011;16557;54.762;56.068;2023-01-31T01:38:07;38.90;;;18.92;;
29634;SDS011;16557;54.762;56.068;2023-01-31T01:40:36;36.83;;;19.23;;
29634;SDS011;16557;54.762;56.068;2023-01-31T01:43:07;39.18;;;17.92;;
29634;SDS011;16557;54.762;56.068;2023-01-31T01:45:37;45.08;;;19.50;;
29634;SDS011;16557;54.762;56.068;2023-01-31T01:48:07;38.38;;;19.17;;
29634;SDS011;16557;54.762;56.068;2023-01-31T01:50:38;44.73;;;20.17;;
29634;SDS011;16557;54.762;56.068;2023-01-31T01:53:15;42.75;;;20.65;;
29634;SDS011;16557;54.762;56.068;2023-01-31T01:55:47;42.30;;;20.25;;
29634;SDS011;16557;54.762;56.068;2023-01-31T02:00:53;35.73;;;19.32;;
29634;SDS011;16557;54.762;56.068;2023-01-31T02:03:23;40.30;;;19.95;;
29634;SDS011;16557;54.762;56.068;2023-01-31T02:05:55;41.18;;;21.27;;
29634;SDS011;16557;54.762;56.068;2023-01-31T02:08:26;40.48;;;19.45;;
29634;SDS011;16557;54.762;56.068;2023-01-31T02:11:06;48.95;;;21.73;;
29634;SDS011;16557;54.762;56.068;2023-01-31T02:13:41;42.60;;;19.00;;
29634;SDS011;16557;54.762;56.068;2023-01-31T02:16:10;45.25;;;21.02;;
29634;SDS011;16557;54.762;56.068;2023-01-31T02:18:39;37.55;;;18.90;;
29634;SDS011;16557;54.762;56.068;2023-01-31T02:21:19;41.33;;;19.62;;
29634;SDS011;16557;54.762;56.068;2023-01-31T02:41:00;35.55;;;18.60;;
29634;SDS011;16557;54.762;56.068;2023-01-31T02:43:41;33.98;;;17.48;;
29634;SDS011;16557;54.762;56.068;2023-01-31T02:46:13;43.40;;;18.60;;
29634;SDS011;16557;54.762;56.068;2023-01-31T02:48:45;30.45;;;17.15;;
29634;SDS011;16557;54.762;56.068;2023-01-31T02:51:29;36.00;;;16.77;;
29634;SDS011;16557;54.762;56.068;2023-01-31T02:54:20;35.00;;;18.23;;
29634;SDS011;16557;54.762;56.068;2023-01-31T02:56:52;33.05;;;17.23;;
29634;SDS011;16557;54.762;56.068;2023-01-31T02:59:22;37.15;;;16.85;;
29634;SDS011;16557;54.762;56.068;2023-01-31T03:01:59;29.95;;;15.23;;
29634;SDS011;16557;54.762;56.068;2023-01-31T03:04:29;37.20;;;17.50;;
29634;SDS011;16557;54.762;56.068;2023-01-31T03:07:12;33.08;;;16.55;;
29634;SDS011;16557;54.762;56.068;2023-01-31T03:18:00;30.52;;;14.98;;
29634;SDS011;16557;54.762;56.068;2023-01-31T03:20:36;30.77;;;15.53;;
29634;SDS011;16557;54.762;56.068;2023-01-31T03:23:10;25.80;;;14.98;;
29634;SDS011;16557;54.762;56.068;2023-01-31T03:25:40;29.37;;;14.40;;
29634;SDS011;16557;54.762;56.068;2023-01-31T03:28:10;26.85;;;14.13;;
29634;SDS011;16557;54.762;56.068;2023-01-31T03:30:45;31.15;;;15.32;;
29634;SDS011;16557;54.762;56.068;2023-01-31T03:33:21;38.38;;;17.45;;
29634;SDS011;16557;54.762;56.068;2023-01-31T03:35:56;30.75;;;15.72;;
29634;SDS011;16557;54.762;56.068;2023-01-31T03:38:49;28.20;;;15.13;;
29634;SDS011;16557;54.762;56.068;2023-01-31T03:41:30;25.92;;;13.90;;
29634;SDS011;16557;54.762;56.068;2023-01-31T03:44:01;28.45;;;14.47;;
29634;SDS011;16557;54.762;56.068;2023-01-31T03:46:33;36.30;;;16.10;;
29634;SDS011;16557;54.762;56.068;2023-01-31T03:49:09;29.57;;;15.68;;
29634;SDS011;16557;54.762;56.068;2023-01-31T03:51:40;31.55;;;14.95;;
29634;SDS011;16557;54.762;56.068;2023-01-31T03:54:13;33.42;;;15.03;;
29634;SDS011;16557;54.762;56.068;2023-01-31T03:56:47;26.70;;;13.22;;
29634;SDS011;16557;54.762;56.068;2023-01-31T03:59:23;29.98;;;14.23;;
29634;SDS011;16557;54.762;56.068;2023-01-31T04:01:54;27.80;;;15.18;;
29634;SDS011;16557;54.762;56.068;2023-01-31T04:04:26;31.35;;;15.23;;
29634;SDS011;16557;54.762;56.068;2023-01-31T04:07:04;29.57;;;15.15;;
29634;SDS011;16557;54.762;56.068;2023-01-31T04:09:33;32.13;;;14.80;;
29634;SDS011;16557;54.762;56.068;2023-01-31T04:12:03;27.13;;;14.00;;
29634;SDS011;16557;54.762;56.068;2023-01-31T04:14:33;26.05;;;13.48;;
29634;SDS011;16557;54.762;56.068;2023-01-31T04:17:02;25.97;;;13.00;;
29634;SDS011;16557;54.762;56.068;2023-01-31T04:19:34;27.60;;;14.80;;
29634;SDS011;16557;54.762;56.068;2023-01-31T04:22:04;29.00;;;14.73;;
29634;SDS011;16557;54.762;56.068;2023-01-31T04:24:33;27.05;;;12.82;;
29634;SDS011;16557;54.762;56.068;2023-01-31T04:27:02;26.45;;;13.05;;
29634;SDS011;16557;54.762;56.068;2023-01-31T04:29:31;25.10;;;12.75;;
29634;SDS011;16557;54.762;56.068;2023-01-31T04:32:00;26.95;;;13.10;;
29634;SDS011;16557;54.762;56.068;2023-01-31T04:34:30;26.97;;;13.03;;
29634;SDS011;16557;54.762;56.068;2023-01-31T04:36:59;27.37;;;13.48;;
29634;SDS011;16557;54.762;56.068;2023-01-31T04:39:28;27.52;;;14.10;;
29634;SDS011;16557;54.762;56.068;2023-01-31T04:41:58;28.77;;;13.83;;
29634;SDS011;16557;54.762;56.068;2023-01-31T04:44:27;28.12;;;14.35;;
29634;SDS011;16557;54.762;56.068;2023-01-31T04:46:56;30.10;;;14.98;;
29634;SDS011;16557;54.762;56.068;2023-01-31T04:49:26;28.75;;;14.90;;
29634;SDS011;16557;54.762;56.068;2023-01-31T04:51:55;31.42;;;15.63;;
29634;SDS011;16557;54.762;56.068;2023-01-31T04:54:24;27.87;;;14.63;;
29634;SDS011;16557;54.762;56.068;2023-01-31T04:56:53;31.40;;;14.87;;
29634;SDS011;16557;54.762;56.068;2023-01-31T04:59:23;28.85;;;14.07;;
29634;SDS011;16557;54.762;56.068;2023-01-31T05:01:52;28.12;;;13.78;;
29634;SDS011;16557;54.762;56.068;2023-01-31T05:04:22;29.98;;;14.90;;
29634;SDS011;16557;54.762;56.068;2023-01-31T05:06:52;32.08;;;14.87;;
29634;SDS011;16557;54.762;56.068;2023-01-31T05:09:21;28.98;;;14.63;;
29634;SDS011;16557;54.762;56.068;2023-01-31T05:11:51;33.63;;;16.02;;
29634;SDS011;16557;54.762;56.068;2023-01-31T05:14:20;30.95;;;14.50;;
29634;SDS011;16557;54.762;56.068;2023-01-31T05:16:49;31.90;;;15.25;;
29634;SDS011;16557;54.762;56.068;2023-01-31T05:19:18;32.83;;;16.20;;
29634;SDS011;16557;54.762;56.068;2023-01-31T05:21:48;35.45;;;14.60;;
29634;SDS011;16557;54.762;56.068;2023-01-31T05:24:26;28.38;;;13.45;;
29634;SDS011;16557;54.762;56.068;2023-01-31T05:26:57;31.82;;;15.43;;
29634;SDS011;16557;54.762;56.068;2023-01-31T05:29:28;26.80;;;13.88;;
29634;SDS011;16557;54.762;56.068;2023-01-31T05:31:59;29.55;;;12.73;;
29634;SDS011;16557;54.762;56.068;2023-01-31T05:34:28;24.87;;;12.45;;
29634;SDS011;16557;54.762;56.068;2023-01-31T05:36:59;28.25;;;12.68;;
29634;SDS011;16557;54.762;56.068;2023-01-31T05:39:29;26.97;;;12.70;;
29634;SDS011;16557;54.762;56.068;2023-01-31T05:41:58;29.05;;;12.33;;
29634;SDS011;16557;54.762;56.068;2023-01-31T05:44:27;25.08;;;13.30;;
29634;SDS011;16557;54.762;56.068;2023-01-31T05:46:58;26.40;;;12.15;;
29634;SDS011;16557;54.762;56.068;2023-01-31T05:49:28;25.00;;;12.58;;
29634;SDS011;16557;54.762;56.068;2023-01-31T05:51:59;24.05;;;12.20;;
29634;SDS011;16557;54.762;56.068;2023-01-31T05:54:28;32.23;;;14.43;;
29634;SDS011;16557;54.762;56.068;2023-01-31T05:56:57;29.10;;;15.10;;
29634;SDS011;16557;54.762;56.068;2023-01-31T05:59:27;30.85;;;15.48;;
29634;SDS011;16557;54.762;56.068;2023-01-31T06:01:57;31.87;;;14.65;;
29634;SDS011;16557;54.762;56.068;2023-01-31T06:04:26;25.82;;;12.50;;
29634;SDS011;16557;54.762;56.068;2023-01-31T06:06:56;23.67;;;12.45;;
29634;SDS011;16557;54.762;56.068;2023-01-31T06:09:25;54.45;;;28.47;;
29634;SDS011;16557;54.762;56.068;2023-01-31T06:11:54;23.62;;;12.80;;
29634;SDS011;16557;54.762;56.068;2023-01-31T06:14:24;25.88;;;11.73;;
29634;SDS011;16557;54.762;56.068;2023-01-31T06:16:53;26.85;;;12.65;;
29634;SDS011;16557;54.762;56.068;2023-01-31T06:19:22;24.02;;;11.65;;
29634;SDS011;16557;54.762;56.068;2023-01-31T06:21:51;22.90;;;12.13;;
29634;SDS011;16557;54.762;56.068;2023-01-31T06:24:21;23.75;;;11.65;;
29634;SDS011;16557;54.762;56.068;2023-01-31T06:26:50;22.93;;;11.55;;
29634;SDS011;16557;54.762;56.068;2023-01-31T06:29:19;22.95;;;11.85;;
29634;SDS011;16557;54.762;56.068;2023-01-31T06:31:48;19.50;;;10.28;;
29634;SDS011;16557;54.762;56.068;2023-01-31T06:34:19;21.57;;;10.55;;
29634;SDS011;16557;54.762;56.068;2023-01-31T06:36:48;22.87;;;11.80;;
29634;SDS011;16557;54.762;56.068;2023-01-31T06:39:17;17.80;;;10.00;;
29634;SDS011;16557;54.762;56.068;2023-01-31T06:41:47;24.32;;;10.70;;
29634;SDS011;16557;54.762;56.068;2023-01-31T06:44:16;21.93;;;11.10;;
29634;SDS011;16557;54.762;56.068;2023-01-31T06:46:45;20.77;;;11.05;;
29634;SDS011;16557;54.762;56.068;2023-01-31T06:49:14;16.30;;;9.45;;
29634;SDS011;16557;54.762;56.068;2023-01-31T06:51:43;21.62;;;10.32;;
29634;SDS011;16557;54.762;56.068;2023-01-31T06:54:13;17.87;;;10.18;;
29634;SDS011;16557;54.762;56.068;2023-01-31T06:56:42;19.60;;;9.68;;
29634;SDS011;16557;54.762;56.068;2023-01-31T06:59:12;21.60;;;10.50;;
29634;SDS011;16557;54.762;56.068;2023-01-31T07:01:41;20.20;;;10.88;;
29634;SDS011;16557;54.762;56.068;2023-01-31T07:04:10;19.00;;;9.88;;
29634;SDS011;16557;54.762;56.068;2023-01-31T07:06:39;17.02;;;9.85;;
29634;SDS011;16557;54.762;56.068;2023-01-31T07:09:09;19.05;;;10.95;;
29634;SDS011;16557;54.762;56.068;2023-01-31T07:11:39;20.37;;;9.40;;
29634;SDS011;16557;54.762;56.068;2023-01-31T07:14:08;16.82;;;10.32;;
29634;SDS011;16557;54.762;56.068;2023-01-31T07:16:37;18.37;;;10.18;;
29634;SDS011;16557;54.762;56.068;2023-01-31T07:19:06;20.72;;;10.40;;
29634;SDS011;16557;54.762;56.068;2023-01-31T07:21:36;16.10;;;9.35;;
29634;SDS011;16557;54.762;56.068;2023-01-31T07:24:05;23.25;;;11.50;;
29634;SDS011;16557;54.762;56.068;2023-01-31T07:26:35;18.48;;;10.28;;
29634;SDS011;16557;54.762;56.068;2023-01-31T07:29:04;17.00;;;9.68;;
29634;SDS011;16557;54.762;56.068;2023-01-31T07:31:34;20.12;;;9.18;;
29634;SDS011;16557;54.762;56.068;2023-01-31T07:34:03;18.52;;;9.28;;
29634;SDS011;16557;54.762;56.068;2023-01-31T07:36:32;16.80;;;9.60;;
29634;SDS011;16557;54.762;56.068;2023-01-31T07:39:01;21.87;;;10.70;;
29634;SDS011;16557;54.762;56.068;2023-01-31T07:41:30;17.30;;;8.50;;
29634;SDS011;16557;54.762;56.068;2023-01-31T07:44:00;18.90;;;9.23;;
29634;SDS011;16557;54.762;56.068;2023-01-31T07:46:29;16.52;;;8.85;;
29634;SDS011;16557;54.762;56.068;2023-01-31T07:48:58;17.75;;;9.25;;
29634;SDS011;16557;54.762;56.068;2023-01-31T07:51:28;15.55;;;8.58;;
29634;SDS011;16557;54.762;56.068;2023-01-31T07:53:57;13.50;;;8.28;;
29634;SDS011;16557;54.762;56.068;2023-01-31T07:56:26;17.15;;;9.30;;
29634;SDS011;16557;54.762;56.068;2023-01-31T07:58:57;16.20;;;8.60;;
29634;SDS011;16557;54.762;56.068;2023-01-31T08:01:27;19.20;;;9.40;;
29634;SDS011;16557;54.762;56.068;2023-01-31T08:04:14;17.57;;;9.48;;
29634;SDS011;16557;54.762;56.068;2023-01-31T08:06:44;18.80;;;9.45;;
29634;SDS011;16557;54.762;56.068;2023-01-31T08:09:14;19.27;;;8.55;;
29634;SDS011;16557;54.762;56.068;2023-01-31T08:11:43;17.05;;;8.50;;
29634;SDS011;16557;54.762;56.068;2023-01-31T08:14:13;14.98;;;8.25;;
29634;SDS011;16557;54.762;56.068;2023-01-31T08:16:42;14.60;;;7.72;;
29634;SDS011;16557;54.762;56.068;2023-01-31T08:19:11;18.42;;;9.73;;
29634;SDS011;16557;54.762;56.068;2023-01-31T08:21:40;16.48;;;9.08;;
29634;SDS011;16557;54.762;56.068;2023-01-31T08:24:09;16.87;;;8.20;;
29634;SDS011;16557;54.762;56.068;2023-01-31T08:26:40;15.75;;;8.73;;
29634;SDS011;16557;54.762;56.068;2023-01-31T08:29:09;15.48;;;8.18;;
29634;SDS011;16557;54.762;56.068;2023-01-31T08:31:39;16.60;;;8.00;;
29634;SDS011;16557;54.762;56.068;2023-01-31T08:34:08;15.38;;;8.23;;
29634;SDS011;16557;54.762;56.068;2023-01-31T08:36:38;17.55;;;8.28;;
29634;SDS011;16557;54.762;56.068;2023-01-31T08:39:07;17.82;;;9.40;;
29634;SDS011;16557;54.762;56.068;2023-01-31T08:41:37;19.10;;;8.50;;
29634;SDS011;16557;54.762;56.068;2023-01-31T08:44:06;20.23;;;8.65;;
29634;SDS011;16557;54.762;56.068;2023-01-31T08:46:36;16.75;;;8.68;;
29634;SDS011;16557;54.762;56.068;2023-01-31T08:49:05;16.32;;;8.40;;
29634;SDS011;16557;54.762;56.068;2023-01-31T08:51:35;15.80;;;8.63;;
29634;SDS011;16557;54.762;56.068;2023-01-31T08:54:04;16.12;;;8.48;;
29634;SDS011;16557;54.762;56.068;2023-01-31T08:56:33;18.17;;;9.68;;
29634;SDS011;16557;54.762;56.068;2023-01-31T08:59:02;15.95;;;8.35;;
29634;SDS011;16557;54.762;56.068;2023-01-31T09:01:32;16.27;;;8.18;;
29634;SDS011;16557;54.762;56.068;2023-01-31T09:04:01;14.55;;;7.85;;
29634;SDS011;16557;54.762;56.068;2023-01-31T09:06:30;16.67;;;8.30;;
29634;SDS011;16557;54.762;56.068;2023-01-31T09:09:07;16.93;;;8.48;;
29634;SDS011;16557;54.762;56.068;2023-01-31T09:11:32;17.65;;;8.03;;
29634;SDS011;16557;54.762;56.068;2023-01-31T09:14:02;17.23;;;7.72;;
29634;SDS011;16557;54.762;56.068;2023-01-31T09:16:31;15.50;;;7.80;;
29634;SDS011;16557;54.762;56.068;2023-01-31T09:19:00;15.30;;;7.97;;
29634;SDS011;16557;54.762;56.068;2023-01-31T09:21:29;15.20;;;7.30;;
29634;SDS011;16557;54.762;56.068;2023-01-31T09:23:59;17.80;;;8.95;;
29634;SDS011;16557;54.762;56.068;2023-01-31T09:26:32;15.58;;;9.20;;
29634;SDS011;16557;54.762;56.068;2023-01-31T09:29:01;15.58;;;8.48;;
29634;SDS011;16557;54.762;56.068;2023-01-31T09:31:30;17.67;;;8.60;;
29634;SDS011;16557;54.762;56.068;2023-01-31T09:34:00;17.73;;;8.45;;
29634;SDS011;16557;54.762;56.068;2023-01-31T09:36:29;18.27;;;8.95;;
29634;SDS011;16557;54.762;56.068;2023-01-31T09:38:58;15.43;;;8.78;;
29634;SDS011;16557;54.762;56.068;2023-01-31T09:41:32;19.37;;;8.85;;
29634;SDS011;16557;54.762;56.068;2023-01-31T09:44:06;14.45;;;8.53;;
29634;SDS011;16557;54.762;56.068;2023-01-31T09:46:49;16.50;;;8.95;;
29634;SDS011;16557;54.762;56.068;2023-01-31T09:49:23;17.67;;;9.68;;
29634;SDS011;16557;54.762;56.068;2023-01-31T09:51:54;20.52;;;9.28;;
29634;SDS011;16557;54.762;56.068;2023-01-31T09:54:35;19.37;;;9.30;;
29634;SDS011;16557;54.762;56.068;2023-01-31T09:57:22;22.10;;;11.20;;
29634;SDS011;16557;54.762;56.068;2023-01-31T10:00:06;20.10;;;10.90;;
29634;SDS011;16557;54.762;56.068;2023-01-31T10:02:44;18.98;;;9.95;;
29634;SDS011;16557;54.762;56.068;2023-01-31T10:08:18;19.57;;;9.43;;
29634;SDS011;16557;54.762;56.068;2023-01-31T10:10:50;17.82;;;10.03;;
29634;SDS011;16557;54.762;56.068;2023-01-31T10:13:21;16.90;;;9.15;;
29634;SDS011;16557;54.762;56.068;2023-01-31T10:16:19;18.90;;;9.50;;
29634;SDS011;16557;54.762;56.068;2023-01-31T10:19:05;21.52;;;10.05;;
29634;SDS011;16557;54.762;56.068;2023-01-31T10:21:34;17.10;;;10.08;;
29634;SDS011;16557;54.762;56.068;2023-01-31T10:24:05;18.30;;;9.90;;
29634;SDS011;16557;54.762;56.068;2023-01-31T10:26:39;18.67;;;10.30;;
29634;SDS011;16557;54.762;56.068;2023-01-31T10:29:13;21.85;;;10.98;;
29634;SDS011;16557;54.762;56.068;2023-01-31T10:32:10;19.80;;;10.23;;
29634;SDS011;16557;54.762;56.068;2023-01-31T10:34:31;19.95;;;9.68;;
29634;SDS011;16557;54.762;56.068;2023-01-31T10:37:13;21.62;;;9.65;;
29634;SDS011;16557;54.762;56.068;2023-01-31T10:39:55;15.85;;;10.08;;
29634;SDS011;16557;54.762;56.068;2023-01-31T10:42:32;19.07;;;9.65;;
29634;SDS011;16557;54.762;56.068;2023-01-31T10:45:14;20.32;;;10.28;;
29634;SDS011;16557;54.762;56.068;2023-01-31T10:47:50;22.17;;;10.70;;
29634;SDS011;16557;54.762;56.068;2023-01-31T10:50:25;20.08;;;10.72;;
29634;SDS011;16557;54.762;56.068;2023-01-31T10:53:03;21.10;;;9.50;;
29634;SDS011;16557;54.762;56.068;2023-01-31T10:55:37;19.87;;;10.15;;
29634;SDS011;16557;54.762;56.068;2023-01-31T10:58:06;17.32;;;8.95;;
29634;SDS011;16557;54.762;56.068;2023-01-31T11:00:39;20.48;;;9.10;;
29634;SDS011;16557;54.762;56.068;2023-01-31T11:03:10;22.30;;;10.03;;
29634;SDS011;16557;54.762;56.068;2023-01-31T11:05:45;17.35;;;9.23;;
29634;SDS011;16557;54.762;56.068;2023-01-31T11:08:20;19.73;;;10.10;;
29634;SDS011;16557;54.762;56.068;2023-01-31T11:11:11;18.77;;;9.63;;
29634;SDS011;16557;54.762;56.068;2023-01-31T11:13:34;19.73;;;10.00;;
29634;SDS011;16557;54.762;56.068;2023-01-31T11:16:13;21.73;;;10.72;;
29634;SDS011;16557;54.762;56.068;2023-01-31T11:18:42;18.95;;;9.83;;
29634;SDS011;16557;54.762;56.068;2023-01-31T11:21:20;19.25;;;10.03;;
29634;SDS011;16557;54.762;56.068;2023-01-31T11:24:03;17.35;;;9.48;;
29634;SDS011;16557;54.762;56.068;2023-01-31T11:26:35;19.52;;;9.70;;
29634;SDS011;16557;54.762;56.068;2023-01-31T11:29:15;16.12;;;8.93;;
29634;SDS011;16557;54.762;56.068;2023-01-31T11:31:39;18.95;;;9.23;;
29634;SDS011;16557;54.762;56.068;2023-01-31T11:34:29;18.50;;;8.65;;
29634;SDS011;16557;54.762;56.068;2023-01-31T11:36:46;17.60;;;9.10;;
29634;SDS011;16557;54.762;56.068;2023-01-31T11:39:29;15.90;;;8.58;;
29634;SDS011;16557;54.762;56.068;2023-01-31T11:44:34;16.73;;;8.93;;
29634;SDS011;16557;54.762;56.068;2023-01-31T11:47:04;16.20;;;8.65;;
29634;SDS011;16557;54.762;56.068;2023-01-31T11:49:37;16.45;;;8.98;;
29634;SDS011;16557;54.762;56.068;2023-01-31T11:52:28;14.85;;;8.33;;
29634;SDS011;16557;54.762;56.068;2023-01-31T11:54:46;14.35;;;8.00;;
29634;SDS011;16557;54.762;56.068;2023-01-31T11:57:21;18.82;;;9.00;;
29634;SDS011;16557;54.762;56.068;2023-01-31T11:59:52;22.10;;;9.63;;
29634;SDS011;16557;54.762;56.068;2023-01-31T12:05:00;17.23;;;8.75;;
29634;SDS011;16557;54.762;56.068;2023-01-31T12:07:39;16.40;;;8.48;;
29634;SDS011;16557;54.762;56.068;2023-01-31T12:10:23;16.27;;;9.05;;
29634;SDS011;16557;54.762;56.068;2023-01-31T12:13:10;18.42;;;8.75;;
29634;SDS011;16557;54.762;56.068;2023-01-31T12:15:30;17.75;;;8.45;;
29634;SDS011;16557;54.762;56.068;2023-01-31T12:17:59;14.78;;;8.43;;
29634;SDS011;16557;54.762;56.068;2023-01-31T12:20:51;16.17;;;8.43;;
29634;SDS011;16557;54.762;56.068;2023-01-31T12:23:11;17.48;;;9.03;;
29634;SDS011;16557;54.762;56.068;2023-01-31T12:26:03;18.95;;;8.60;;
29634;SDS011;16557;54.762;56.068;2023-01-31T12:28:35;19.12;;;9.78;;
29634;SDS011;16557;54.762;56.068;2023-01-31T12:33:57;17.32;;;8.88;;
29634;SDS011;16557;54.762;56.068;2023-01-31T12:39:14;14.93;;;8.20;;
29634;SDS011;16557;54.762;56.068;2023-01-31T12:47:22;13.38;;;7.58;;
29634;SDS011;16557;54.762;56.068;2023-01-31T12:58:45;19.02;;;9.58;;
29634;SDS011;16557;54.762;56.068;2023-01-31T13:01:49;15.72;;;8.65;;
29634;SDS011;16557;54.762;56.068;2023-01-31T13:07:08;17.67;;;8.58;;
29634;SDS011;16557;54.762;56.068;2023-01-31T13:09:39;16.32;;;8.88;;
29634;SDS011;16557;54.762;56.068;2023-01-31T13:12:11;16.90;;;8.50;;
29634;SDS011;16557;54.762;56.068;2023-01-31T13:14:46;18.27;;;8.38;;
29634;SDS011;16557;54.762;56.068;2023-01-31T13:17:21;19.75;;;9.13;;
29634;SDS011;16557;54.762;56.068;2023-01-31T13:20:00;17.98;;;8.28;;
29634;SDS011;16557;54.762;56.068;2023-01-31T13:22:29;18.20;;;9.55;;
29634;SDS011;16557;54.762;56.068;2023-01-31T13:28:11;15.95;;;8.10;;
29634;SDS011;16557;54.762;56.068;2023-01-31T13:33:06;17.40;;;9.23;;
29634;SDS011;16557;54.762;56.068;2023-01-31T13:35:36;15.72;;;8.78;;
29634;SDS011;16557;54.762;56.068;2023-01-31T13:38:07;16.37;;;8.03;;
29634;SDS011;16557;54.762;56.068;2023-01-31T13:40:44;14.23;;;7.45;;
29634;SDS011;16557;54.762;56.068;2023-01-31T13:43:14;23.85;;;11.00;;
29634;SDS011;16557;54.762;56.068;2023-01-31T13:45:44;15.40;;;8.03;;
29634;SDS011;16557;54.762;56.068;2023-01-31T13:53:55;16.62;;;7.80;;
29634;SDS011;16557;54.762;56.068;2023-01-31T13:56:29;14.75;;;7.30;;
29634;SDS011;16557;54.762;56.068;2023-01-31T13:59:02;13.22;;;6.97;;
29634;SDS011;16557;54.762;56.068;2023-01-31T14:01:42;15.35;;;7.75;;
29634;SDS011;16557;54.762;56.068;2023-01-31T14:09:30;12.90;;;6.97;;
29634;SDS011;16557;54.762;56.068;2023-01-31T14:14:44;13.53;;;6.90;;
29634;SDS011;16557;54.762;56.068;2023-01-31T14:23:26;14.10;;;7.72;;
29634;SDS011;16557;54.762;56.068;2023-01-31T14:25:40;17.67;;;9.13;;
29634;SDS011;16557;54.762;56.068;2023-01-31T14:28:10;15.13;;;8.65;;
29634;SDS011;16557;54.762;56.068;2023-01-31T14:30:40;12.93;;;7.65;;
29634;SDS011;16557;54.762;56.068;2023-01-31T14:38:43;15.20;;;7.62;;
29634;SDS011;16557;54.762;56.068;2023-01-31T14:52:43;13.13;;;7.33;;
29634;SDS011;16557;54.762;56.068;2023-01-31T14:57:51;11.80;;;7.08;;
29634;SDS011;16557;54.762;56.068;2023-01-31T15:00:24;14.65;;;7.10;;
29634;SDS011;16557;54.762;56.068;2023-01-31T15:05:47;14.40;;;7.85;;
29634;SDS011;16557;54.762;56.068;2023-01-31T15:16:09;12.00;;;6.60;;
29634;SDS011;16557;54.762;56.068;2023-01-31T15:18:42;11.90;;;7.00;;
29634;SDS011;16557;54.762;56.068;2023-01-31T15:21:11;13.13;;;7.60;;
29634;SDS011;16557;54.762;56.068;2023-01-31T15:23:43;12.37;;;6.65;;
29634;SDS011;16557;54.762;56.068;2023-01-31T15:26:13;15.05;;;6.83;;
29634;SDS011;16557;54.762;56.068;2023-01-31T15:28:44;13.55;;;6.65;;
29634;SDS011;16557;54.762;56.068;2023-01-31T15:31:22;11.97;;;6.37;;
29634;SDS011;16557;54.762;56.068;2023-01-31T15:33:50;12.18;;;5.83;;
29634;SDS011;16557;54.762;56.068;2023-01-31T15:39:27;10.78;;;6.20;;
29634;SDS011;16557;54.762;56.068;2023-01-31T15:41:56;13.10;;;7.25;;
29634;SDS011;16557;54.762;56.068;2023-01-31T15:44:25;11.48;;;6.22;;
29634;SDS011;16557;54.762;56.068;2023-01-31T15:46:55;11.70;;;5.40;;
29634;SDS011;16557;54.762;56.068;2023-01-31T15:52:13;10.63;;;5.85;;
29634;SDS011;16557;54.762;56.068;2023-01-31T15:54:54;13.08;;;6.25;;
29634;SDS011;16557;54.762;56.068;2023-01-31T15:57:29;10.75;;;5.53;;
29634;SDS011;16557;54.762;56.068;2023-01-31T16:00:16;10.50;;;5.53;;
29634;SDS011;16557;54.762;56.068;2023-01-31T16:02:45;10.43;;;5.42;;
29634;SDS011;16557;54.762;56.068;2023-01-31T16:05:20;10.23;;;5.33;;
29634;SDS011;16557;54.762;56.068;2023-01-31T16:07:50;10.70;;;5.75;;
29634;SDS011;16557;54.762;56.068;2023-01-31T16:10:19;10.38;;;5.72;;
29634;SDS011;16557;54.762;56.068;2023-01-31T16:12:48;9.15;;;5.47;;
29634;SDS011;16557;54.762;56.068;2023-01-31T16:15:20;10.38;;;5.80;;
29634;SDS011;16557;54.762;56.068;2023-01-31T16:17:55;9.90;;;5.42;;
29634;SDS011;16557;54.762;56.068;2023-01-31T16:20:36;8.38;;;5.08;;
29634;SDS011;16557;54.762;56.068;2023-01-31T16:25:56;24.15;;;12.45;;
29634;SDS011;16557;54.762;56.068;2023-01-31T16:28:28;10.40;;;5.55;;
29634;SDS011;16557;54.762;56.068;2023-01-31T16:31:09;9.78;;;5.47;;
29634;SDS011;16557;54.762;56.068;2023-01-31T16:33:44;11.65;;;6.65;;
29634;SDS011;16557;54.762;56.068;2023-01-31T16:36:11;9.18;;;4.85;;
29634;SDS011;16557;54.762;56.068;2023-01-31T16:38:42;9.70;;;5.05;;
29634;SDS011;16557;54.762;56.068;2023-01-31T16:41:11;14.10;;;5.37;;
29634;SDS011;16557;54.762;56.068;2023-01-31T16:43:41;9.85;;;5.35;;
29634;SDS011;16557;54.762;56.068;2023-01-31T16:46:21;10.40;;;4.72;;